sensor_id;sensor_type;location;lat;lon;timestamp;P1;durP1;ratioP1;P2;durP2;ratioP2
48823;SDS011;34640;53.590;10.054;2024-01-11T00:01:53;36.13;;;14.17;;
48823;SDS011;34640;53.590;10.054;2024-01-11T00:04:27;37.03;;;16.03;;
48823;SDS011;34640;53.590;10.054;2024-01-11T00:07:00;41.17;;;16.33;;
48823;SDS011;34640;53.590;10.054;2024-01-11T00:09:34;45.13;;;17.45;;
48823;SDS011;34640;53.590;10.054;2024-01-11T00:12:11;42.17;;;18.17;;
48823;SDS011;34640;53.590;10.054;2024-01-11T00:14:44;45.27;;;17.30;;
48823;SDS011;34640;53.590;10.054;2024-01-11T00:17:17;47.10;;;18.33;;
48823;SDS011;34640;53.590;10.054;2024-01-11T00:19:52;41.90;;;17.20;;
48823;SDS011;34640;53.590;10.054;2024-01-11T00:22:26;46.47;;;18.17;;
48823;SDS011;34640;53.590;10.054;2024-01-11T00:25:00;45.03;;;17.83;;
48823;SDS011;34640;53.590;10.054;2024-01-11T00:27:36;47.90;;;18.80;;
48823;SDS011;34640;53.590;10.054;2024-01-11T00:30:10;40.90;;;16.97;;
48823;SDS011;34640;53.590;10.054;2024-01-11T00:32:43;38.53;;;15.57;;
48823;SDS011;34640;53.590;10.054;2024-01-11T00:35:17;38.83;;;16.50;;
48823;SDS011;34640;53.590;10.054;2024-01-11T00:37:51;37.40;;;15.47;;
48823;SDS011;34640;53.590;10.054;2024-01-11T00:40:24;39.43;;;16.70;;
48823;SDS011;34640;53.590;10.054;2024-01-11T00:42:57;37.73;;;15.20;;
48823;SDS011;34640;53.590;10.054;2024-01-11T00:45:30;36.87;;;15.07;;
48823;SDS011;34640;53.590;10.054;2024-01-11T00:48:03;43.13;;;16.47;;
48823;SDS011;34640;53.590;10.054;2024-01-11T00:50:38;65.60;;;17.07;;
48823;SDS011;34640;53.590;10.054;2024-01-11T00:53:12;40.80;;;15.40;;
48823;SDS011;34640;53.590;10.054;2024-01-11T00:55:46;37.37;;;15.40;;
48823;SDS011;34640;53.590;10.054;2024-01-11T00:58:19;37.93;;;15.20;;
48823;SDS011;34640;53.590;10.054;2024-01-11T01:00:52;38.70;;;15.77;;
48823;SDS011;34640;53.590;10.054;2024-01-11T01:03:26;33.97;;;13.83;;
48823;SDS011;34640;53.590;10.054;2024-01-11T01:06:00;39.20;;;16.93;;
48823;SDS011;34640;53.590;10.054;2024-01-11T01:08:34;33.67;;;13.33;;
48823;SDS011;34640;53.590;10.054;2024-01-11T01:11:07;37.07;;;15.03;;
48823;SDS011;34640;53.590;10.054;2024-01-11T01:13:41;33.03;;;14.20;;
48823;SDS011;34640;53.590;10.054;2024-01-11T01:16:14;34.07;;;14.23;;
48823;SDS011;34640;53.590;10.054;2024-01-11T01:18:50;35.17;;;14.50;;
48823;SDS011;34640;53.590;10.054;2024-01-11T01:21:26;35.20;;;14.10;;
48823;SDS011;34640;53.590;10.054;2024-01-11T01:23:59;33.03;;;13.33;;
48823;SDS011;34640;53.590;10.054;2024-01-11T01:26:32;37.10;;;14.60;;
48823;SDS011;34640;53.590;10.054;2024-01-11T01:29:06;35.23;;;15.07;;
48823;SDS011;34640;53.590;10.054;2024-01-11T01:31:38;34.73;;;14.40;;
48823;SDS011;34640;53.590;10.054;2024-01-11T01:34:11;36.03;;;14.00;;
48823;SDS011;34640;53.590;10.054;2024-01-11T01:36:47;36.03;;;15.10;;
48823;SDS011;34640;53.590;10.054;2024-01-11T01:39:20;33.40;;;13.87;;
48823;SDS011;34640;53.590;10.054;2024-01-11T01:41:53;40.13;;;15.77;;
48823;SDS011;34640;53.590;10.054;2024-01-11T01:44:26;81.37;;;16.20;;
48823;SDS011;34640;53.590;10.054;2024-01-11T01:46:59;40.53;;;15.63;;
48823;SDS011;34640;53.590;10.054;2024-01-11T01:49:33;36.93;;;14.83;;
48823;SDS011;34640;53.590;10.054;2024-01-11T01:52:07;32.43;;;13.30;;
48823;SDS011;34640;53.590;10.054;2024-01-11T01:54:41;34.37;;;13.67;;
48823;SDS011;34640;53.590;10.054;2024-01-11T01:57:14;36.83;;;14.67;;
48823;SDS011;34640;53.590;10.054;2024-01-11T01:59:48;36.30;;;14.97;;
48823;SDS011;34640;53.590;10.054;2024-01-11T02:02:23;37.70;;;15.07;;
48823;SDS011;34640;53.590;10.054;2024-01-11T02:04:58;35.20;;;14.43;;
48823;SDS011;34640;53.590;10.054;2024-01-11T02:07:32;35.23;;;15.00;;
48823;SDS011;34640;53.590;10.054;2024-01-11T02:10:05;40.33;;;14.83;;
48823;SDS011;34640;53.590;10.054;2024-01-11T02:12:40;39.23;;;16.03;;
48823;SDS011;34640;53.590;10.054;2024-01-11T02:15:14;35.47;;;15.17;;
48823;SDS011;34640;53.590;10.054;2024-01-11T02:17:47;37.73;;;15.60;;
48823;SDS011;34640;53.590;10.054;2024-01-11T02:20:20;39.90;;;15.33;;
48823;SDS011;34640;53.590;10.054;2024-01-11T02:22:56;39.77;;;16.40;;
48823;SDS011;34640;53.590;10.054;2024-01-11T02:25:36;39.50;;;16.20;;
48823;SDS011;34640;53.590;10.054;2024-01-11T02:28:09;39.87;;;15.97;;
48823;SDS011;34640;53.590;10.054;2024-01-11T02:30:42;44.30;;;17.23;;
48823;SDS011;34640;53.590;10.054;2024-01-11T02:33:15;41.53;;;16.03;;
48823;SDS011;34640;53.590;10.054;2024-01-11T02:35:50;48.53;;;18.33;;
48823;SDS011;34640;53.590;10.054;2024-01-11T02:38:23;47.13;;;18.25;;
48823;SDS011;34640;53.590;10.054;2024-01-11T02:40:58;48.67;;;18.00;;
48823;SDS011;34640;53.590;10.054;2024-01-11T02:43:32;48.30;;;18.63;;
48823;SDS011;34640;53.590;10.054;2024-01-11T02:46:07;47.17;;;18.63;;
48823;SDS011;34640;53.590;10.054;2024-01-11T02:48:42;45.90;;;18.80;;
48823;SDS011;34640;53.590;10.054;2024-01-11T02:51:15;46.60;;;18.37;;
48823;SDS011;34640;53.590;10.054;2024-01-11T02:53:48;53.33;;;20.43;;
48823;SDS011;34640;53.590;10.054;2024-01-11T02:56:23;44.70;;;17.73;;
48823;SDS011;34640;53.590;10.054;2024-01-11T02:58:56;49.90;;;17.57;;
48823;SDS011;34640;53.590;10.054;2024-01-11T03:01:29;53.73;;;20.93;;
48823;SDS011;34640;53.590;10.054;2024-01-11T03:04:03;50.73;;;18.70;;
48823;SDS011;34640;53.590;10.054;2024-01-11T03:06:36;49.87;;;19.30;;
48823;SDS011;34640;53.590;10.054;2024-01-11T03:09:10;53.77;;;19.57;;
48823;SDS011;34640;53.590;10.054;2024-01-11T03:11:44;51.13;;;19.27;;
48823;SDS011;34640;53.590;10.054;2024-01-11T03:14:17;52.97;;;18.30;;
48823;SDS011;34640;53.590;10.054;2024-01-11T03:16:50;56.07;;;20.23;;
48823;SDS011;34640;53.590;10.054;2024-01-11T03:19:23;45.87;;;18.53;;
48823;SDS011;34640;53.590;10.054;2024-01-11T03:21:57;48.23;;;19.00;;
48823;SDS011;34640;53.590;10.054;2024-01-11T03:24:29;49.40;;;17.87;;
48823;SDS011;34640;53.590;10.054;2024-01-11T03:27:04;50.47;;;18.83;;
48823;SDS011;34640;53.590;10.054;2024-01-11T03:29:37;49.57;;;19.17;;
48823;SDS011;34640;53.590;10.054;2024-01-11T03:32:10;43.10;;;17.73;;
48823;SDS011;34640;53.590;10.054;2024-01-11T03:34:45;44.73;;;17.60;;
48823;SDS011;34640;53.590;10.054;2024-01-11T03:37:18;43.30;;;17.60;;
48823;SDS011;34640;53.590;10.054;2024-01-11T03:39:52;45.17;;;16.50;;
48823;SDS011;34640;53.590;10.054;2024-01-11T03:42:26;41.27;;;16.10;;
48823;SDS011;34640;53.590;10.054;2024-01-11T03:45:01;43.87;;;17.10;;
48823;SDS011;34640;53.590;10.054;2024-01-11T03:47:34;44.03;;;17.20;;
48823;SDS011;34640;53.590;10.054;2024-01-11T03:50:11;42.13;;;16.13;;
48823;SDS011;34640;53.590;10.054;2024-01-11T03:52:44;41.77;;;16.77;;
48823;SDS011;34640;53.590;10.054;2024-01-11T03:55:17;44.23;;;17.83;;
48823;SDS011;34640;53.590;10.054;2024-01-11T03:57:52;46.47;;;17.10;;
48823;SDS011;34640;53.590;10.054;2024-01-11T04:00:27;42.03;;;16.60;;
48823;SDS011;34640;53.590;10.054;2024-01-11T04:03:00;42.47;;;17.17;;
48823;SDS011;34640;53.590;10.054;2024-01-11T04:05:34;45.50;;;16.40;;
48823;SDS011;34640;53.590;10.054;2024-01-11T04:08:08;44.77;;;17.47;;
48823;SDS011;34640;53.590;10.054;2024-01-11T04:10:41;49.37;;;18.67;;
48823;SDS011;34640;53.590;10.054;2024-01-11T04:13:15;55.37;;;19.80;;
48823;SDS011;34640;53.590;10.054;2024-01-11T04:15:48;45.40;;;17.87;;
48823;SDS011;34640;53.590;10.054;2024-01-11T04:18:21;55.33;;;20.37;;
48823;SDS011;34640;53.590;10.054;2024-01-11T04:20:54;60.13;;;20.83;;
48823;SDS011;34640;53.590;10.054;2024-01-11T04:23:27;55.47;;;20.23;;
48823;SDS011;34640;53.590;10.054;2024-01-11T04:26:01;55.60;;;20.17;;
48823;SDS011;34640;53.590;10.054;2024-01-11T04:28:35;55.53;;;20.37;;
48823;SDS011;34640;53.590;10.054;2024-01-11T04:31:10;58.17;;;20.67;;
48823;SDS011;34640;53.590;10.054;2024-01-11T04:33:43;59.63;;;22.10;;
48823;SDS011;34640;53.590;10.054;2024-01-11T04:36:17;63.10;;;22.17;;
48823;SDS011;34640;53.590;10.054;2024-01-11T04:38:52;61.37;;;22.60;;
48823;SDS011;34640;53.590;10.054;2024-01-11T04:41:25;63.27;;;23.03;;
48823;SDS011;34640;53.590;10.054;2024-01-11T04:43:59;62.63;;;23.60;;
48823;SDS011;34640;53.590;10.054;2024-01-11T04:46:32;72.47;;;25.87;;
48823;SDS011;34640;53.590;10.054;2024-01-11T04:49:05;65.83;;;24.47;;
48823;SDS011;34640;53.590;10.054;2024-01-11T04:51:38;70.20;;;24.23;;
48823;SDS011;34640;53.590;10.054;2024-01-11T04:54:11;66.00;;;24.90;;
48823;SDS011;34640;53.590;10.054;2024-01-11T04:56:44;65.07;;;24.13;;
48823;SDS011;34640;53.590;10.054;2024-01-11T04:59:19;66.63;;;24.40;;
48823;SDS011;34640;53.590;10.054;2024-01-11T05:01:52;62.00;;;22.57;;
48823;SDS011;34640;53.590;10.054;2024-01-11T05:04:25;59.27;;;22.67;;
48823;SDS011;34640;53.590;10.054;2024-01-11T05:06:58;58.23;;;21.73;;
48823;SDS011;34640;53.590;10.054;2024-01-11T05:09:31;61.03;;;22.67;;
48823;SDS011;34640;53.590;10.054;2024-01-11T05:12:04;58.83;;;21.73;;
48823;SDS011;34640;53.590;10.054;2024-01-11T05:14:39;61.43;;;22.77;;
48823;SDS011;34640;53.590;10.054;2024-01-11T05:17:14;63.80;;;22.00;;
48823;SDS011;34640;53.590;10.054;2024-01-11T05:19:47;61.97;;;21.97;;
48823;SDS011;34640;53.590;10.054;2024-01-11T05:22:20;61.00;;;23.27;;
48823;SDS011;34640;53.590;10.054;2024-01-11T05:24:53;64.80;;;23.17;;
48823;SDS011;34640;53.590;10.054;2024-01-11T05:27:26;68.60;;;25.43;;
48823;SDS011;34640;53.590;10.054;2024-01-11T05:30:01;61.57;;;22.87;;
48823;SDS011;34640;53.590;10.054;2024-01-11T05:32:34;59.10;;;21.67;;
48823;SDS011;34640;53.590;10.054;2024-01-11T05:35:07;62.93;;;23.57;;
48823;SDS011;34640;53.590;10.054;2024-01-11T05:37:41;65.30;;;23.90;;
48823;SDS011;34640;53.590;10.054;2024-01-11T05:40:14;65.83;;;23.53;;
48823;SDS011;34640;53.590;10.054;2024-01-11T05:42:47;63.97;;;23.50;;
48823;SDS011;34640;53.590;10.054;2024-01-11T05:45:22;60.13;;;22.37;;
48823;SDS011;34640;53.590;10.054;2024-01-11T05:48:10;56.10;;;21.33;;
48823;SDS011;34640;53.590;10.054;2024-01-11T05:50:43;57.00;;;21.50;;
48823;SDS011;34640;53.590;10.054;2024-01-11T05:53:17;56.50;;;19.83;;
48823;SDS011;34640;53.590;10.054;2024-01-11T05:55:52;56.07;;;19.83;;
48823;SDS011;34640;53.590;10.054;2024-01-11T05:58:26;59.63;;;21.37;;
48823;SDS011;34640;53.590;10.054;2024-01-11T06:01:02;60.60;;;21.13;;
48823;SDS011;34640;53.590;10.054;2024-01-11T06:03:35;55.23;;;19.60;;
48823;SDS011;34640;53.590;10.054;2024-01-11T06:06:10;61.20;;;21.00;;
48823;SDS011;34640;53.590;10.054;2024-01-11T06:08:43;60.80;;;21.27;;
48823;SDS011;34640;53.590;10.054;2024-01-11T06:11:16;61.67;;;20.57;;
48823;SDS011;34640;53.590;10.054;2024-01-11T06:13:49;60.77;;;19.83;;
48823;SDS011;34640;53.590;10.054;2024-01-11T06:16:24;56.47;;;19.00;;
48823;SDS011;34640;53.590;10.054;2024-01-11T06:18:57;56.13;;;19.20;;
48823;SDS011;34640;53.590;10.054;2024-01-11T06:21:30;55.20;;;19.60;;
48823;SDS011;34640;53.590;10.054;2024-01-11T06:24:03;53.03;;;19.53;;
48823;SDS011;34640;53.590;10.054;2024-01-11T06:26:36;54.03;;;18.80;;
48823;SDS011;34640;53.590;10.054;2024-01-11T06:29:10;58.00;;;18.80;;
48823;SDS011;34640;53.590;10.054;2024-01-11T06:31:45;51.70;;;17.73;;
48823;SDS011;34640;53.590;10.054;2024-01-11T06:34:17;48.47;;;16.00;;
48823;SDS011;34640;53.590;10.054;2024-01-11T06:36:51;47.03;;;16.20;;
48823;SDS011;34640;53.590;10.054;2024-01-11T06:39:23;51.67;;;18.77;;
48823;SDS011;34640;53.590;10.054;2024-01-11T06:41:56;53.80;;;17.37;;
48823;SDS011;34640;53.590;10.054;2024-01-11T06:44:31;46.67;;;17.27;;
48823;SDS011;34640;53.590;10.054;2024-01-11T06:47:10;50.22;;;16.77;;
48823;SDS011;34640;53.590;10.054;2024-01-11T06:49:43;47.40;;;17.33;;
48823;SDS011;34640;53.590;10.054;2024-01-11T06:52:16;45.22;;;15.48;;
48823;SDS011;34640;53.590;10.054;2024-01-11T06:54:50;44.27;;;15.03;;
48823;SDS011;34640;53.590;10.054;2024-01-11T06:57:24;48.07;;;15.47;;
48823;SDS011;34640;53.590;10.054;2024-01-11T06:59:57;52.67;;;17.07;;
48823;SDS011;34640;53.590;10.054;2024-01-11T07:02:31;49.37;;;14.53;;
48823;SDS011;34640;53.590;10.054;2024-01-11T07:05:04;46.23;;;15.30;;
48823;SDS011;34640;53.590;10.054;2024-01-11T07:07:37;35.83;;;11.80;;
48823;SDS011;34640;53.590;10.054;2024-01-11T07:10:10;33.35;;;10.43;;
48823;SDS011;34640;53.590;10.054;2024-01-11T07:12:44;36.33;;;11.43;;
48823;SDS011;34640;53.590;10.054;2024-01-11T07:15:19;43.72;;;12.77;;
48823;SDS011;34640;53.590;10.054;2024-01-11T07:17:53;40.40;;;11.53;;
48823;SDS011;34640;53.590;10.054;2024-01-11T07:20:26;36.15;;;11.15;;
48823;SDS011;34640;53.590;10.054;2024-01-11T07:22:59;44.95;;;12.63;;
48823;SDS011;34640;53.590;10.054;2024-01-11T07:25:32;43.43;;;11.73;;
48823;SDS011;34640;53.590;10.054;2024-01-11T07:28:06;39.83;;;11.73;;
48823;SDS011;34640;53.590;10.054;2024-01-11T07:30:39;44.23;;;11.50;;
48823;SDS011;34640;53.590;10.054;2024-01-11T07:33:15;32.93;;;10.60;;
48823;SDS011;34640;53.590;10.054;2024-01-11T07:35:49;35.47;;;10.05;;
48823;SDS011;34640;53.590;10.054;2024-01-11T07:38:23;32.93;;;10.53;;
48823;SDS011;34640;53.590;10.054;2024-01-11T07:40:56;39.13;;;11.27;;
48823;SDS011;34640;53.590;10.054;2024-01-11T07:43:29;40.65;;;11.27;;
48823;SDS011;34640;53.590;10.054;2024-01-11T07:46:19;32.10;;;9.38;;
48823;SDS011;34640;53.590;10.054;2024-01-11T07:49:07;33.17;;;9.87;;
48823;SDS011;34640;53.590;10.054;2024-01-11T07:51:41;37.87;;;11.03;;
48823;SDS011;34640;53.590;10.054;2024-01-11T07:54:14;30.70;;;8.90;;
48823;SDS011;34640;53.590;10.054;2024-01-11T07:56:47;33.63;;;9.93;;
48823;SDS011;34640;53.590;10.054;2024-01-11T07:59:20;38.58;;;10.75;;
48823;SDS011;34640;53.590;10.054;2024-01-11T08:01:53;34.33;;;10.82;;
48823;SDS011;34640;53.590;10.054;2024-01-11T08:04:28;32.90;;;9.73;;
48823;SDS011;34640;53.590;10.054;2024-01-11T08:07:01;30.33;;;9.75;;
48823;SDS011;34640;53.590;10.054;2024-01-11T08:09:35;29.50;;;9.75;;
48823;SDS011;34640;53.590;10.054;2024-01-11T08:12:10;28.63;;;8.20;;
48823;SDS011;34640;53.590;10.054;2024-01-11T08:14:45;27.88;;;9.23;;
48823;SDS011;34640;53.590;10.054;2024-01-11T08:17:18;34.03;;;10.10;;
48823;SDS011;34640;53.590;10.054;2024-01-11T08:19:53;30.05;;;9.80;;
48823;SDS011;34640;53.590;10.054;2024-01-11T08:22:26;31.70;;;9.00;;
48823;SDS011;34640;53.590;10.054;2024-01-11T08:25:05;31.88;;;8.38;;
48823;SDS011;34640;53.590;10.054;2024-01-11T08:27:38;35.22;;;10.30;;
48823;SDS011;34640;53.590;10.054;2024-01-11T08:30:12;26.80;;;8.35;;
48823;SDS011;34640;53.590;10.054;2024-01-11T08:32:49;29.55;;;8.93;;
48823;SDS011;34640;53.590;10.054;2024-01-11T08:35:24;34.67;;;8.65;;
48823;SDS011;34640;53.590;10.054;2024-01-11T08:37:57;30.65;;;9.32;;
48823;SDS011;34640;53.590;10.054;2024-01-11T08:40:30;27.85;;;9.57;;
48823;SDS011;34640;53.590;10.054;2024-01-11T08:43:06;31.55;;;9.40;;
48823;SDS011;34640;53.590;10.054;2024-01-11T08:45:39;35.92;;;10.75;;
48823;SDS011;34640;53.590;10.054;2024-01-11T08:48:17;34.45;;;9.65;;
48823;SDS011;34640;53.590;10.054;2024-01-11T08:50:51;31.08;;;9.43;;
48823;SDS011;34640;53.590;10.054;2024-01-11T08:53:27;29.35;;;9.80;;
48823;SDS011;34640;53.590;10.054;2024-01-11T08:56:01;31.80;;;9.80;;
48823;SDS011;34640;53.590;10.054;2024-01-11T08:58:34;32.00;;;8.95;;
48823;SDS011;34640;53.590;10.054;2024-01-11T09:01:08;31.35;;;9.43;;
48823;SDS011;34640;53.590;10.054;2024-01-11T09:03:43;32.33;;;10.10;;
48823;SDS011;34640;53.590;10.054;2024-01-11T09:06:21;35.33;;;9.55;;
48823;SDS011;34640;53.590;10.054;2024-01-11T09:08:54;30.23;;;9.18;;
48823;SDS011;34640;53.590;10.054;2024-01-11T09:11:30;33.25;;;9.48;;
48823;SDS011;34640;53.590;10.054;2024-01-11T09:14:03;33.78;;;10.00;;
48823;SDS011;34640;53.590;10.054;2024-01-11T09:16:37;29.27;;;8.88;;
48823;SDS011;34640;53.590;10.054;2024-01-11T09:19:11;33.10;;;9.50;;
48823;SDS011;34640;53.590;10.054;2024-01-11T09:21:45;35.25;;;10.05;;
48823;SDS011;34640;53.590;10.054;2024-01-11T09:24:21;32.30;;;10.50;;
48823;SDS011;34640;53.590;10.054;2024-01-11T09:26:54;28.30;;;8.82;;
48823;SDS011;34640;53.590;10.054;2024-01-11T09:29:27;34.97;;;10.07;;
48823;SDS011;34640;53.590;10.054;2024-01-11T09:32:00;32.05;;;9.20;;
48823;SDS011;34640;53.590;10.054;2024-01-11T09:34:33;26.08;;;8.07;;
48823;SDS011;34640;53.590;10.054;2024-01-11T09:37:09;35.10;;;10.55;;
48823;SDS011;34640;53.590;10.054;2024-01-11T09:39:42;26.25;;;9.13;;
48823;SDS011;34640;53.590;10.054;2024-01-11T09:42:15;26.80;;;8.55;;
48823;SDS011;34640;53.590;10.054;2024-01-11T09:44:48;29.52;;;8.23;;
48823;SDS011;34640;53.590;10.054;2024-01-11T09:47:22;36.47;;;9.73;;
48823;SDS011;34640;53.590;10.054;2024-01-11T09:49:57;34.22;;;9.73;;
48823;SDS011;34640;53.590;10.054;2024-01-11T09:52:32;29.05;;;9.55;;
48823;SDS011;34640;53.590;10.054;2024-01-11T09:55:07;30.95;;;8.70;;
48823;SDS011;34640;53.590;10.054;2024-01-11T09:57:41;32.72;;;9.23;;
48823;SDS011;34640;53.590;10.054;2024-01-11T10:00:18;25.15;;;8.63;;
48823;SDS011;34640;53.590;10.054;2024-01-11T10:02:55;31.80;;;9.05;;
48823;SDS011;34640;53.590;10.054;2024-01-11T10:05:28;25.42;;;8.50;;
48823;SDS011;34640;53.590;10.054;2024-01-11T10:08:03;28.42;;;8.10;;
48823;SDS011;34640;53.590;10.054;2024-01-11T10:10:37;26.15;;;8.70;;
48823;SDS011;34640;53.590;10.054;2024-01-11T10:13:11;24.33;;;7.65;;
48823;SDS011;34640;53.590;10.054;2024-01-11T10:15:45;24.50;;;7.45;;
48823;SDS011;34640;53.590;10.054;2024-01-11T10:18:18;29.67;;;7.63;;
48823;SDS011;34640;53.590;10.054;2024-01-11T10:20:55;21.98;;;7.40;;
48823;SDS011;34640;53.590;10.054;2024-01-11T10:23:31;22.08;;;7.55;;
48823;SDS011;34640;53.590;10.054;2024-01-11T10:26:05;35.58;;;10.30;;
48823;SDS011;34640;53.590;10.054;2024-01-11T10:28:39;24.73;;;8.07;;
48823;SDS011;34640;53.590;10.054;2024-01-11T10:31:17;23.20;;;8.35;;
48823;SDS011;34640;53.590;10.054;2024-01-11T10:33:52;28.95;;;7.38;;
48823;SDS011;34640;53.590;10.054;2024-01-11T10:36:25;26.52;;;8.30;;
48823;SDS011;34640;53.590;10.054;2024-01-11T10:39:01;27.05;;;8.27;;
48823;SDS011;34640;53.590;10.054;2024-01-11T10:41:38;33.03;;;9.90;;
48823;SDS011;34640;53.590;10.054;2024-01-11T10:44:15;29.92;;;8.60;;
48823;SDS011;34640;53.590;10.054;2024-01-11T10:49:28;30.52;;;7.47;;
48823;SDS011;34640;53.590;10.054;2024-01-11T10:52:04;22.95;;;8.15;;
48823;SDS011;34640;53.590;10.054;2024-01-11T10:54:41;31.27;;;7.72;;
48823;SDS011;34640;53.590;10.054;2024-01-11T10:57:16;23.55;;;7.55;;
48823;SDS011;34640;53.590;10.054;2024-01-11T10:59:51;25.30;;;7.95;;
48823;SDS011;34640;53.590;10.054;2024-01-11T11:02:27;25.27;;;8.50;;
48823;SDS011;34640;53.590;10.054;2024-01-11T11:05:00;24.48;;;7.60;;
48823;SDS011;34640;53.590;10.054;2024-01-11T11:07:40;22.38;;;8.13;;
48823;SDS011;34640;53.590;10.054;2024-01-11T11:10:15;26.77;;;9.00;;
48823;SDS011;34640;53.590;10.054;2024-01-11T11:12:51;28.08;;;9.18;;
48823;SDS011;34640;53.590;10.054;2024-01-11T11:15:28;24.80;;;9.30;;
48823;SDS011;34640;53.590;10.054;2024-01-11T11:18:02;24.38;;;9.05;;
48823;SDS011;34640;53.590;10.054;2024-01-11T11:20:39;24.33;;;9.00;;
48823;SDS011;34640;53.590;10.054;2024-01-11T11:23:16;25.77;;;9.13;;
48823;SDS011;34640;53.590;10.054;2024-01-11T11:25:53;36.20;;;10.48;;
48823;SDS011;34640;53.590;10.054;2024-01-11T11:28:33;30.65;;;10.27;;
48823;SDS011;34640;53.590;10.054;2024-01-11T11:31:10;54.38;;;19.38;;
48823;SDS011;34640;53.590;10.054;2024-01-11T11:33:44;32.17;;;12.25;;
48823;SDS011;34640;53.590;10.054;2024-01-11T11:36:18;34.75;;;11.93;;
48823;SDS011;34640;53.590;10.054;2024-01-11T11:39:01;34.95;;;11.30;;
48823;SDS011;34640;53.590;10.054;2024-01-11T11:41:36;41.10;;;11.57;;
48823;SDS011;34640;53.590;10.054;2024-01-11T11:44:11;35.00;;;10.55;;
48823;SDS011;34640;53.590;10.054;2024-01-11T11:46:46;31.77;;;10.30;;
48823;SDS011;34640;53.590;10.054;2024-01-11T11:49:19;40.75;;;11.27;;
48823;SDS011;34640;53.590;10.054;2024-01-11T11:51:52;31.67;;;11.10;;
48823;SDS011;34640;53.590;10.054;2024-01-11T11:54:28;40.03;;;11.55;;
48823;SDS011;34640;53.590;10.054;2024-01-11T11:57:04;31.88;;;11.05;;
48823;SDS011;34640;53.590;10.054;2024-01-11T11:59:40;35.33;;;10.82;;
48823;SDS011;34640;53.590;10.054;2024-01-11T12:02:15;40.88;;;12.75;;
48823;SDS011;34640;53.590;10.054;2024-01-11T12:04:52;32.92;;;11.60;;
48823;SDS011;34640;53.590;10.054;2024-01-11T12:07:25;37.78;;;11.50;;
48823;SDS011;34640;53.590;10.054;2024-01-11T12:09:58;35.53;;;11.68;;
48823;SDS011;34640;53.590;10.054;2024-01-11T12:12:34;30.02;;;10.30;;
48823;SDS011;34640;53.590;10.054;2024-01-11T12:15:08;32.13;;;11.18;;
48823;SDS011;34640;53.590;10.054;2024-01-11T12:17:42;39.13;;;12.55;;
48823;SDS011;34640;53.590;10.054;2024-01-11T12:20:16;36.05;;;12.13;;
48823;SDS011;34640;53.590;10.054;2024-01-11T12:22:52;34.15;;;11.63;;
48823;SDS011;34640;53.590;10.054;2024-01-11T12:25:26;39.08;;;12.95;;
48823;SDS011;34640;53.590;10.054;2024-01-11T12:28:01;35.67;;;12.48;;
48823;SDS011;34640;53.590;10.054;2024-01-11T12:30:34;38.13;;;12.57;;
48823;SDS011;34640;53.590;10.054;2024-01-11T12:33:09;40.83;;;13.20;;
48823;SDS011;34640;53.590;10.054;2024-01-11T12:35:45;41.42;;;12.88;;
48823;SDS011;34640;53.590;10.054;2024-01-11T12:38:19;42.40;;;13.27;;
48823;SDS011;34640;53.590;10.054;2024-01-11T12:40:52;43.92;;;14.10;;
48823;SDS011;34640;53.590;10.054;2024-01-11T12:43:27;40.03;;;13.95;;
48823;SDS011;34640;53.590;10.054;2024-01-11T12:46:00;38.65;;;13.75;;
48823;SDS011;34640;53.590;10.054;2024-01-11T12:48:34;38.05;;;14.50;;
48823;SDS011;34640;53.590;10.054;2024-01-11T12:51:07;41.40;;;13.90;;
48823;SDS011;34640;53.590;10.054;2024-01-11T12:53:51;40.78;;;14.65;;
48823;SDS011;34640;53.590;10.054;2024-01-11T12:56:25;34.83;;;12.98;;
48823;SDS011;34640;53.590;10.054;2024-01-11T12:59:07;35.72;;;13.07;;
48823;SDS011;34640;53.590;10.054;2024-01-11T13:01:41;36.92;;;14.30;;
48823;SDS011;34640;53.590;10.054;2024-01-11T13:04:13;38.60;;;13.95;;
48823;SDS011;34640;53.590;10.054;2024-01-11T13:06:46;39.50;;;13.90;;
48823;SDS011;34640;53.590;10.054;2024-01-11T13:09:21;45.63;;;15.05;;
48823;SDS011;34640;53.590;10.054;2024-01-11T13:11:54;39.63;;;13.88;;
48823;SDS011;34640;53.590;10.054;2024-01-11T13:14:28;39.80;;;14.20;;
48823;SDS011;34640;53.590;10.054;2024-01-11T13:17:02;44.45;;;14.77;;
48823;SDS011;34640;53.590;10.054;2024-01-11T13:19:35;42.75;;;15.00;;
48823;SDS011;34640;53.590;10.054;2024-01-11T13:22:08;42.60;;;14.32;;
48823;SDS011;34640;53.590;10.054;2024-01-11T13:24:41;38.38;;;14.25;;
48823;SDS011;34640;53.590;10.054;2024-01-11T13:27:14;40.95;;;13.73;;
48823;SDS011;34640;53.590;10.054;2024-01-11T13:29:49;40.70;;;13.93;;
48823;SDS011;34640;53.590;10.054;2024-01-11T13:32:25;40.97;;;13.65;;
48823;SDS011;34640;53.590;10.054;2024-01-11T13:34:58;33.42;;;13.05;;
48823;SDS011;34640;53.590;10.054;2024-01-11T13:37:33;41.08;;;14.35;;
48823;SDS011;34640;53.590;10.054;2024-01-11T13:40:07;40.03;;;13.38;;
48823;SDS011;34640;53.590;10.054;2024-01-11T13:42:43;40.03;;;14.82;;
48823;SDS011;34640;53.590;10.054;2024-01-11T13:45:17;42.33;;;14.23;;
48823;SDS011;34640;53.590;10.054;2024-01-11T13:47:50;40.40;;;14.85;;
48823;SDS011;34640;53.590;10.054;2024-01-11T13:50:25;43.70;;;14.30;;
48823;SDS011;34640;53.590;10.054;2024-01-11T13:52:58;48.83;;;14.88;;
48823;SDS011;34640;53.590;10.054;2024-01-11T13:55:32;38.83;;;14.43;;
48823;SDS011;34640;53.590;10.054;2024-01-11T13:58:11;44.92;;;15.80;;
48823;SDS011;34640;53.590;10.054;2024-01-11T14:00:47;44.58;;;14.32;;
48823;SDS011;34640;53.590;10.054;2024-01-11T14:03:20;41.97;;;14.38;;
48823;SDS011;34640;53.590;10.054;2024-01-11T14:05:53;39.72;;;13.75;;
48823;SDS011;34640;53.590;10.054;2024-01-11T14:08:29;42.83;;;14.52;;
48823;SDS011;34640;53.590;10.054;2024-01-11T14:11:03;40.58;;;14.32;;
48823;SDS011;34640;53.590;10.054;2024-01-11T14:13:36;36.78;;;13.40;;
48823;SDS011;34640;53.590;10.054;2024-01-11T14:16:10;39.67;;;13.75;;
48823;SDS011;34640;53.590;10.054;2024-01-11T14:18:45;42.63;;;13.77;;
48823;SDS011;34640;53.590;10.054;2024-01-11T14:21:18;39.10;;;12.27;;
48823;SDS011;34640;53.590;10.054;2024-01-11T14:23:51;38.25;;;13.35;;
48823;SDS011;34640;53.590;10.054;2024-01-11T14:26:28;42.35;;;12.57;;
48823;SDS011;34640;53.590;10.054;2024-01-11T14:29:01;41.33;;;12.45;;
48823;SDS011;34640;53.590;10.054;2024-01-11T14:31:36;31.58;;;11.63;;
48823;SDS011;34640;53.590;10.054;2024-01-11T14:34:11;40.83;;;11.82;;
48823;SDS011;34640;53.590;10.054;2024-01-11T14:36:45;33.08;;;11.93;;
48823;SDS011;34640;53.590;10.054;2024-01-11T14:39:19;35.90;;;12.27;;
48823;SDS011;34640;53.590;10.054;2024-01-11T14:41:54;34.95;;;11.98;;
48823;SDS011;34640;53.590;10.054;2024-01-11T14:44:27;35.10;;;11.55;;
48823;SDS011;34640;53.590;10.054;2024-01-11T14:47:02;37.75;;;12.60;;
48823;SDS011;34640;53.590;10.054;2024-01-11T14:49:36;41.08;;;13.07;;
48823;SDS011;34640;53.590;10.054;2024-01-11T14:52:09;36.00;;;11.25;;
48823;SDS011;34640;53.590;10.054;2024-01-11T14:54:45;30.40;;;10.98;;